Terminal Aerodrome Forecast
Issued by NWS

Home | Current Version | Previous Version | Text Only | Print | Product List | Glossary On
Versions: 1 2 3 4 5 6 7 8 9 10 11 12 13 14 15 16 17 18 19 20 21 22 23 24
000
FTUS46 KMTR 191500 AAA
TAFSFO
TAF AMD
KSFO 191504Z 1915/2018 27010KT P6SM FEW012
     FM192100 28020G28KT P6SM FEW015 BKN250
     FM200200 26010KT P6SM FEW015 BKN250
     FM200800 28004KT P6SM SCT010=

USA.gov is the U.S. government's official web portal to all federal, state and local government web resources and services.